Terminal Aerodrome Forecast
Issued by NWS

Home | Current Version | Previous Version | Text Only | Print | Product List | Glossary Off
Versions: 1 2 3 4 5 6 7 8 9 10 11 12 13 14 15 16 17 18 19 20

000
FTUS43 KICT 292320
TAFHUT
TAF
KHUT 292320Z 3000/3024 06016KT P6SM VCSH SCT008 OVC012
     FM300200 10014KT 4SM BR VCTS OVC008CB
     FM300800 30010KT 4SM BR OVC008
     FM301600 27014KT P6SM SCT035
     FM302000 26015G23KT P6SM SCT060=

USA.gov is the U.S. government's official web portal to all federal, state and local government web resources and services.